sensor_id;sensor_type;location;lat;lon;timestamp;temperature;humidity
58339;DHT22;68636;52.704;6.536;2023-08-06T00:00:20;14.60;99.90
58339;DHT22;68636;52.704;6.536;2023-08-06T00:02:46;14.60;99.90
58339;DHT22;68636;52.704;6.536;2023-08-06T00:05:12;14.60;99.90
58339;DHT22;68636;52.704;6.536;2023-08-06T00:07:37;14.60;99.90
58339;DHT22;68636;52.704;6.536;2023-08-06T00:10:04;14.60;99.90
58339;DHT22;68636;52.704;6.536;2023-08-06T00:12:29;14.60;99.90
58339;DHT22;68636;52.704;6.536;2023-08-06T00:14:55;14.60;99.90
58339;DHT22;68636;52.704;6.536;2023-08-06T00:17:21;14.60;99.90
58339;DHT22;68636;52.704;6.536;2023-08-06T00:19:46;14.60;99.90
58339;DHT22;68636;52.704;6.536;2023-08-06T00:22:12;14.50;99.90
58339;DHT22;68636;52.704;6.536;2023-08-06T00:24:38;14.50;99.90
58339;DHT22;68636;52.704;6.536;2023-08-06T00:27:04;14.50;99.90
58339;DHT22;68636;52.704;6.536;2023-08-06T00:29:29;14.50;99.90
58339;DHT22;68636;52.704;6.536;2023-08-06T00:31:55;14.50;99.90
58339;DHT22;68636;52.704;6.536;2023-08-06T00:34:21;14.40;99.90
58339;DHT22;68636;52.704;6.536;2023-08-06T00:36:46;14.40;99.90
58339;DHT22;68636;52.704;6.536;2023-08-06T00:39:12;14.40;99.90
58339;DHT22;68636;52.704;6.536;2023-08-06T00:41:38;14.30;99.90
58339;DHT22;68636;52.704;6.536;2023-08-06T00:44:04;14.30;99.90
58339;DHT22;68636;52.704;6.536;2023-08-06T00:46:30;14.20;99.90
58339;DHT22;68636;52.704;6.536;2023-08-06T00:48:57;14.20;99.90
58339;DHT22;68636;52.704;6.536;2023-08-06T00:51:22;14.10;99.90
58339;DHT22;68636;52.704;6.536;2023-08-06T00:53:50;14.00;99.90
58339;DHT22;68636;52.704;6.536;2023-08-06T00:56:16;13.90;99.90
58339;DHT22;68636;52.704;6.536;2023-08-06T00:58:42;13.90;99.90
58339;DHT22;68636;52.704;6.536;2023-08-06T01:01:08;13.90;99.90
58339;DHT22;68636;52.704;6.536;2023-08-06T01:03:33;13.80;99.90
58339;DHT22;68636;52.704;6.536;2023-08-06T01:06:00;13.80;99.90
58339;DHT22;68636;52.704;6.536;2023-08-06T01:09:04;13.80;99.90
58339;DHT22;68636;52.704;6.536;2023-08-06T01:14:06;13.80;99.90
58339;DHT22;68636;52.704;6.536;2023-08-06T01:16:33;13.90;99.90
58339;DHT22;68636;52.704;6.536;2023-08-06T01:19:01;13.90;99.90
58339;DHT22;68636;52.704;6.536;2023-08-06T01:21:26;13.90;99.90
58339;DHT22;68636;52.704;6.536;2023-08-06T01:23:52;13.90;99.90
58339;DHT22;68636;52.704;6.536;2023-08-06T01:26:26;13.90;99.90
58339;DHT22;68636;52.704;6.536;2023-08-06T01:31:42;13.90;99.90
58339;DHT22;68636;52.704;6.536;2023-08-06T01:34:17;13.80;99.90
58339;DHT22;68636;52.704;6.536;2023-08-06T01:36:43;13.80;99.90
58339;DHT22;68636;52.704;6.536;2023-08-06T01:39:09;13.80;99.90
58339;DHT22;68636;52.704;6.536;2023-08-06T01:41:35;13.80;99.90
58339;DHT22;68636;52.704;6.536;2023-08-06T01:44:01;13.80;99.90
58339;DHT22;68636;52.704;6.536;2023-08-06T01:46:27;13.80;99.90
58339;DHT22;68636;52.704;6.536;2023-08-06T01:48:52;13.90;99.90
58339;DHT22;68636;52.704;6.536;2023-08-06T01:51:18;13.90;99.90
58339;DHT22;68636;52.704;6.536;2023-08-06T01:53:44;13.90;99.90
58339;DHT22;68636;52.704;6.536;2023-08-06T01:56:09;13.90;99.90
58339;DHT22;68636;52.704;6.536;2023-08-06T01:58:35;14.00;99.90
58339;DHT22;68636;52.704;6.536;2023-08-06T02:01:01;14.00;99.90
58339;DHT22;68636;52.704;6.536;2023-08-06T02:03:27;14.00;99.90
58339;DHT22;68636;52.704;6.536;2023-08-06T02:05:53;14.00;99.90
58339;DHT22;68636;52.704;6.536;2023-08-06T02:08:18;14.00;99.90
58339;DHT22;68636;52.704;6.536;2023-08-06T02:10:45;14.00;99.90
58339;DHT22;68636;52.704;6.536;2023-08-06T02:13:11;14.00;99.90
58339;DHT22;68636;52.704;6.536;2023-08-06T02:15:42;14.00;99.90
58339;DHT22;68636;52.704;6.536;2023-08-06T02:18:08;14.00;99.90
58339;DHT22;68636;52.704;6.536;2023-08-06T02:20:34;14.00;99.90
58339;DHT22;68636;52.704;6.536;2023-08-06T02:23:00;13.90;99.90
58339;DHT22;68636;52.704;6.536;2023-08-06T02:25:26;13.90;99.90
58339;DHT22;68636;52.704;6.536;2023-08-06T02:27:51;13.90;99.90
58339;DHT22;68636;52.704;6.536;2023-08-06T02:30:17;13.80;99.90
58339;DHT22;68636;52.704;6.536;2023-08-06T02:32:43;13.80;99.90
58339;DHT22;68636;52.704;6.536;2023-08-06T02:35:08;13.80;99.90
58339;DHT22;68636;52.704;6.536;2023-08-06T02:37:34;13.80;99.90
58339;DHT22;68636;52.704;6.536;2023-08-06T02:40:00;13.80;99.90
58339;DHT22;68636;52.704;6.536;2023-08-06T02:42:26;13.80;99.90
58339;DHT22;68636;52.704;6.536;2023-08-06T02:44:52;13.80;99.90
58339;DHT22;68636;52.704;6.536;2023-08-06T02:47:20;13.70;99.90
58339;DHT22;68636;52.704;6.536;2023-08-06T02:49:46;13.70;99.90
58339;DHT22;68636;52.704;6.536;2023-08-06T02:52:12;13.60;99.90
58339;DHT22;68636;52.704;6.536;2023-08-06T02:54:38;13.60;99.90
58339;DHT22;68636;52.704;6.536;2023-08-06T02:57:05;13.50;99.90
58339;DHT22;68636;52.704;6.536;2023-08-06T02:59:31;13.50;99.90
58339;DHT22;68636;52.704;6.536;2023-08-06T03:01:57;13.60;99.90
58339;DHT22;68636;52.704;6.536;2023-08-06T03:04:23;13.60;99.90
58339;DHT22;68636;52.704;6.536;2023-08-06T03:06:51;13.60;99.90
58339;DHT22;68636;52.704;6.536;2023-08-06T03:09:17;13.60;99.90
58339;DHT22;68636;52.704;6.536;2023-08-06T03:11:43;13.60;99.90
58339;DHT22;68636;52.704;6.536;2023-08-06T03:14:09;13.70;99.90
58339;DHT22;68636;52.704;6.536;2023-08-06T03:16:35;13.60;99.90
58339;DHT22;68636;52.704;6.536;2023-08-06T03:19:00;13.70;99.90
58339;DHT22;68636;52.704;6.536;2023-08-06T03:21:26;13.60;99.90
58339;DHT22;68636;52.704;6.536;2023-08-06T03:23:52;13.60;99.90
58339;DHT22;68636;52.704;6.536;2023-08-06T03:26:18;13.60;99.90
58339;DHT22;68636;52.704;6.536;2023-08-06T03:28:43;13.70;99.90
58339;DHT22;68636;52.704;6.536;2023-08-06T03:31:09;13.70;99.90
58339;DHT22;68636;52.704;6.536;2023-08-06T03:33:35;13.70;99.90
58339;DHT22;68636;52.704;6.536;2023-08-06T03:36:01;13.70;99.90
58339;DHT22;68636;52.704;6.536;2023-08-06T03:38:27;13.70;99.90
58339;DHT22;68636;52.704;6.536;2023-08-06T03:40:53;13.70;99.90
58339;DHT22;68636;52.704;6.536;2023-08-06T03:43:19;13.60;99.90
58339;DHT22;68636;52.704;6.536;2023-08-06T03:45:45;13.60;99.90
58339;DHT22;68636;52.704;6.536;2023-08-06T03:48:11;13.60;99.90
58339;DHT22;68636;52.704;6.536;2023-08-06T03:50:36;13.60;99.90
58339;DHT22;68636;52.704;6.536;2023-08-06T03:53:03;13.60;99.90
58339;DHT22;68636;52.704;6.536;2023-08-06T03:55:29;13.60;99.90
58339;DHT22;68636;52.704;6.536;2023-08-06T03:57:55;13.60;99.90
58339;DHT22;68636;52.704;6.536;2023-08-06T04:00:20;13.60;99.90
58339;DHT22;68636;52.704;6.536;2023-08-06T04:02:46;13.70;99.90
58339;DHT22;68636;52.704;6.536;2023-08-06T04:05:12;13.70;99.90
58339;DHT22;68636;52.704;6.536;2023-08-06T04:07:38;13.70;99.90
58339;DHT22;68636;52.704;6.536;2023-08-06T04:10:04;13.70;99.90
58339;DHT22;68636;52.704;6.536;2023-08-06T04:12:30;13.80;99.90
58339;DHT22;68636;52.704;6.536;2023-08-06T04:15:00;13.80;99.90
58339;DHT22;68636;52.704;6.536;2023-08-06T04:17:26;13.80;99.90
58339;DHT22;68636;52.704;6.536;2023-08-06T04:19:53;13.80;99.90
58339;DHT22;68636;52.704;6.536;2023-08-06T04:22:20;13.70;99.90
58339;DHT22;68636;52.704;6.536;2023-08-06T04:24:46;13.70;99.90
58339;DHT22;68636;52.704;6.536;2023-08-06T04:27:13;13.80;99.90
58339;DHT22;68636;52.704;6.536;2023-08-06T04:29:39;13.70;99.90
58339;DHT22;68636;52.704;6.536;2023-08-06T04:32:07;13.80;99.90
58339;DHT22;68636;52.704;6.536;2023-08-06T04:34:33;13.80;99.90
58339;DHT22;68636;52.704;6.536;2023-08-06T04:37:00;13.90;99.90
58339;DHT22;68636;52.704;6.536;2023-08-06T04:39:26;13.90;99.90
58339;DHT22;68636;52.704;6.536;2023-08-06T04:41:51;14.00;99.90
58339;DHT22;68636;52.704;6.536;2023-08-06T04:44:17;14.00;99.90
58339;DHT22;68636;52.704;6.536;2023-08-06T04:46:43;14.00;99.90
58339;DHT22;68636;52.704;6.536;2023-08-06T04:49:09;14.10;99.90
58339;DHT22;68636;52.704;6.536;2023-08-06T04:51:34;14.10;99.90
58339;DHT22;68636;52.704;6.536;2023-08-06T04:54:00;14.10;99.90
58339;DHT22;68636;52.704;6.536;2023-08-06T04:56:26;14.20;99.90
58339;DHT22;68636;52.704;6.536;2023-08-06T04:58:52;14.20;99.90
58339;DHT22;68636;52.704;6.536;2023-08-06T05:01:17;14.30;99.90
58339;DHT22;68636;52.704;6.536;2023-08-06T05:03:43;14.30;99.90
58339;DHT22;68636;52.704;6.536;2023-08-06T05:06:09;14.30;99.90
58339;DHT22;68636;52.704;6.536;2023-08-06T05:08:36;14.30;99.90
58339;DHT22;68636;52.704;6.536;2023-08-06T05:11:01;14.40;99.90
58339;DHT22;68636;52.704;6.536;2023-08-06T05:13:27;14.40;99.90
58339;DHT22;68636;52.704;6.536;2023-08-06T05:15:54;14.40;99.90
58339;DHT22;68636;52.704;6.536;2023-08-06T05:18:20;14.40;99.90
58339;DHT22;68636;52.704;6.536;2023-08-06T05:20:46;14.40;99.90
58339;DHT22;68636;52.704;6.536;2023-08-06T05:23:11;14.40;99.90
58339;DHT22;68636;52.704;6.536;2023-08-06T05:25:38;14.50;99.90
58339;DHT22;68636;52.704;6.536;2023-08-06T05:28:04;14.40;99.90
58339;DHT22;68636;52.704;6.536;2023-08-06T05:30:30;14.50;99.90
58339;DHT22;68636;52.704;6.536;2023-08-06T05:32:56;14.50;99.90
58339;DHT22;68636;52.704;6.536;2023-08-06T05:35:22;14.60;99.90
58339;DHT22;68636;52.704;6.536;2023-08-06T05:37:49;14.50;99.90
58339;DHT22;68636;52.704;6.536;2023-08-06T05:40:15;14.50;99.90
58339;DHT22;68636;52.704;6.536;2023-08-06T05:42:41;14.60;99.90
58339;DHT22;68636;52.704;6.536;2023-08-06T05:45:07;14.60;99.90
58339;DHT22;68636;52.704;6.536;2023-08-06T05:47:33;14.70;99.90
58339;DHT22;68636;52.704;6.536;2023-08-06T05:49:59;14.70;99.90
58339;DHT22;68636;52.704;6.536;2023-08-06T05:52:25;14.60;99.90
58339;DHT22;68636;52.704;6.536;2023-08-06T05:54:50;14.70;99.90
58339;DHT22;68636;52.704;6.536;2023-08-06T05:57:17;14.70;99.90
58339;DHT22;68636;52.704;6.536;2023-08-06T05:59:42;14.80;99.90
58339;DHT22;68636;52.704;6.536;2023-08-06T06:02:08;14.80;99.90
58339;DHT22;68636;52.704;6.536;2023-08-06T06:04:34;14.80;99.90
58339;DHT22;68636;52.704;6.536;2023-08-06T06:07:00;15.00;99.90
58339;DHT22;68636;52.704;6.536;2023-08-06T06:09:25;15.00;99.90
58339;DHT22;68636;52.704;6.536;2023-08-06T06:11:51;15.10;99.90
58339;DHT22;68636;52.704;6.536;2023-08-06T06:14:18;15.20;99.90
58339;DHT22;68636;52.704;6.536;2023-08-06T06:16:44;15.10;99.90
58339;DHT22;68636;52.704;6.536;2023-08-06T06:19:10;15.10;99.90
58339;DHT22;68636;52.704;6.536;2023-08-06T06:21:35;15.20;99.90
58339;DHT22;68636;52.704;6.536;2023-08-06T06:24:01;15.20;99.90
58339;DHT22;68636;52.704;6.536;2023-08-06T06:26:28;15.10;99.90
58339;DHT22;68636;52.704;6.536;2023-08-06T06:28:54;15.20;99.90
58339;DHT22;68636;52.704;6.536;2023-08-06T06:31:19;15.10;99.90
58339;DHT22;68636;52.704;6.536;2023-08-06T06:33:45;15.10;99.90
58339;DHT22;68636;52.704;6.536;2023-08-06T06:36:11;15.20;99.90
58339;DHT22;68636;52.704;6.536;2023-08-06T06:38:37;15.20;99.90
58339;DHT22;68636;52.704;6.536;2023-08-06T06:41:02;15.30;99.90
58339;DHT22;68636;52.704;6.536;2023-08-06T06:43:28;15.40;99.90
58339;DHT22;68636;52.704;6.536;2023-08-06T06:45:58;15.50;99.90
58339;DHT22;68636;52.704;6.536;2023-08-06T06:48:28;15.60;99.90
58339;DHT22;68636;52.704;6.536;2023-08-06T06:50:54;15.70;99.90
58339;DHT22;68636;52.704;6.536;2023-08-06T06:53:20;15.70;99.90
58339;DHT22;68636;52.704;6.536;2023-08-06T06:55:48;15.80;99.90
58339;DHT22;68636;52.704;6.536;2023-08-06T06:58:15;15.90;99.90
58339;DHT22;68636;52.704;6.536;2023-08-06T07:00:41;16.00;99.90
58339;DHT22;68636;52.704;6.536;2023-08-06T07:03:07;16.10;99.90
58339;DHT22;68636;52.704;6.536;2023-08-06T07:05:33;16.20;99.90
58339;DHT22;68636;52.704;6.536;2023-08-06T07:07:59;16.20;99.90
58339;DHT22;68636;52.704;6.536;2023-08-06T07:10:26;16.30;99.90
58339;DHT22;68636;52.704;6.536;2023-08-06T07:12:51;16.30;99.90
58339;DHT22;68636;52.704;6.536;2023-08-06T07:15:17;16.40;99.90
58339;DHT22;68636;52.704;6.536;2023-08-06T07:17:43;16.50;99.90
58339;DHT22;68636;52.704;6.536;2023-08-06T07:20:09;16.50;99.90
58339;DHT22;68636;52.704;6.536;2023-08-06T07:22:35;16.50;99.90
58339;DHT22;68636;52.704;6.536;2023-08-06T07:25:01;16.30;99.90
58339;DHT22;68636;52.704;6.536;2023-08-06T07:27:27;16.20;99.90
58339;DHT22;68636;52.704;6.536;2023-08-06T07:29:53;16.40;99.90
58339;DHT22;68636;52.704;6.536;2023-08-06T07:32:18;16.40;99.90
58339;DHT22;68636;52.704;6.536;2023-08-06T07:34:44;16.50;99.90
58339;DHT22;68636;52.704;6.536;2023-08-06T07:37:10;16.30;99.90
58339;DHT22;68636;52.704;6.536;2023-08-06T07:39:35;16.50;99.90
58339;DHT22;68636;52.704;6.536;2023-08-06T07:42:03;16.40;99.90
58339;DHT22;68636;52.704;6.536;2023-08-06T07:44:31;16.50;99.90
58339;DHT22;68636;52.704;6.536;2023-08-06T07:46:57;16.20;99.90
58339;DHT22;68636;52.704;6.536;2023-08-06T07:49:22;16.20;99.90
58339;DHT22;68636;52.704;6.536;2023-08-06T07:51:48;16.40;99.90
58339;DHT22;68636;52.704;6.536;2023-08-06T07:54:14;16.50;99.90
58339;DHT22;68636;52.704;6.536;2023-08-06T07:56:40;16.60;99.90
58339;DHT22;68636;52.704;6.536;2023-08-06T07:59:06;16.70;99.90
58339;DHT22;68636;52.704;6.536;2023-08-06T08:01:31;16.80;99.90
58339;DHT22;68636;52.704;6.536;2023-08-06T08:03:57;16.70;99.90
58339;DHT22;68636;52.704;6.536;2023-08-06T08:06:23;16.50;99.90
58339;DHT22;68636;52.704;6.536;2023-08-06T08:08:48;16.50;99.90
58339;DHT22;68636;52.704;6.536;2023-08-06T08:11:14;16.70;99.90
58339;DHT22;68636;52.704;6.536;2023-08-06T08:13:41;16.60;99.90
58339;DHT22;68636;52.704;6.536;2023-08-06T08:16:07;16.50;99.90
58339;DHT22;68636;52.704;6.536;2023-08-06T08:18:33;16.60;99.90
58339;DHT22;68636;52.704;6.536;2023-08-06T08:20:59;16.50;99.90
58339;DHT22;68636;52.704;6.536;2023-08-06T08:23:24;16.60;99.90
58339;DHT22;68636;52.704;6.536;2023-08-06T08:25:50;16.70;99.90
58339;DHT22;68636;52.704;6.536;2023-08-06T08:28:16;16.80;99.90
58339;DHT22;68636;52.704;6.536;2023-08-06T08:30:42;17.10;99.90
58339;DHT22;68636;52.704;6.536;2023-08-06T08:33:08;17.20;99.90
58339;DHT22;68636;52.704;6.536;2023-08-06T08:35:34;17.10;99.90
58339;DHT22;68636;52.704;6.536;2023-08-06T08:38:01;17.30;99.90
58339;DHT22;68636;52.704;6.536;2023-08-06T08:40:31;17.40;99.90
58339;DHT22;68636;52.704;6.536;2023-08-06T08:42:58;17.30;99.90
58339;DHT22;68636;52.704;6.536;2023-08-06T08:45:24;17.50;99.90
58339;DHT22;68636;52.704;6.536;2023-08-06T08:47:51;17.70;99.90
58339;DHT22;68636;52.704;6.536;2023-08-06T08:50:17;17.50;99.90
58339;DHT22;68636;52.704;6.536;2023-08-06T08:52:45;17.50;99.90
58339;DHT22;68636;52.704;6.536;2023-08-06T08:55:12;17.60;99.90
58339;DHT22;68636;52.704;6.536;2023-08-06T08:57:39;17.80;99.90
58339;DHT22;68636;52.704;6.536;2023-08-06T09:00:05;17.80;99.90
58339;DHT22;68636;52.704;6.536;2023-08-06T09:02:33;17.60;99.90
58339;DHT22;68636;52.704;6.536;2023-08-06T09:05:00;17.70;99.90
58339;DHT22;68636;52.704;6.536;2023-08-06T09:07:34;17.60;99.90
58339;DHT22;68636;52.704;6.536;2023-08-06T09:10:02;17.80;99.90
58339;DHT22;68636;52.704;6.536;2023-08-06T09:12:31;17.80;99.90
58339;DHT22;68636;52.704;6.536;2023-08-06T09:14:57;17.90;99.90
58339;DHT22;68636;52.704;6.536;2023-08-06T09:17:23;18.20;99.90
58339;DHT22;68636;52.704;6.536;2023-08-06T09:19:49;18.20;99.90
58339;DHT22;68636;52.704;6.536;2023-08-06T09:22:15;18.30;99.90
58339;DHT22;68636;52.704;6.536;2023-08-06T09:24:41;18.30;99.90
58339;DHT22;68636;52.704;6.536;2023-08-06T09:27:11;18.40;99.90
58339;DHT22;68636;52.704;6.536;2023-08-06T09:29:44;18.40;99.90
58339;DHT22;68636;52.704;6.536;2023-08-06T09:32:14;18.50;99.90
58339;DHT22;68636;52.704;6.536;2023-08-06T09:34:43;18.50;99.90
58339;DHT22;68636;52.704;6.536;2023-08-06T09:37:09;18.80;99.90
58339;DHT22;68636;52.704;6.536;2023-08-06T09:39:39;19.00;99.90
58339;DHT22;68636;52.704;6.536;2023-08-06T09:42:08;19.10;99.90
58339;DHT22;68636;52.704;6.536;2023-08-06T09:44:34;19.00;99.90
58339;DHT22;68636;52.704;6.536;2023-08-06T09:47:04;19.30;99.90
58339;DHT22;68636;52.704;6.536;2023-08-06T09:51:59;19.20;99.90
58339;DHT22;68636;52.704;6.536;2023-08-06T09:54:26;19.00;99.90
58339;DHT22;68636;52.704;6.536;2023-08-06T09:56:53;19.00;99.90
58339;DHT22;68636;52.704;6.536;2023-08-06T09:59:20;19.00;99.90
58339;DHT22;68636;52.704;6.536;2023-08-06T10:01:46;19.00;99.90
58339;DHT22;68636;52.704;6.536;2023-08-06T10:04:14;19.10;99.90
58339;DHT22;68636;52.704;6.536;2023-08-06T10:06:46;19.20;99.90
58339;DHT22;68636;52.704;6.536;2023-08-06T10:09:12;19.20;99.90
58339;DHT22;68636;52.704;6.536;2023-08-06T10:11:39;19.10;99.90
58339;DHT22;68636;52.704;6.536;2023-08-06T10:14:14;19.40;99.90
58339;DHT22;68636;52.704;6.536;2023-08-06T10:16:42;19.50;99.90
58339;DHT22;68636;52.704;6.536;2023-08-06T10:19:10;19.50;99.90
58339;DHT22;68636;52.704;6.536;2023-08-06T10:21:38;19.50;99.90
58339;DHT22;68636;52.704;6.536;2023-08-06T10:24:07;19.70;99.90
58339;DHT22;68636;52.704;6.536;2023-08-06T10:26:35;19.70;99.90
58339;DHT22;68636;52.704;6.536;2023-08-06T10:29:00;20.00;99.90
58339;DHT22;68636;52.704;6.536;2023-08-06T10:34:56;20.30;99.90
58339;DHT22;68636;52.704;6.536;2023-08-06T10:37:23;20.60;99.90
58339;DHT22;68636;52.704;6.536;2023-08-06T10:39:53;20.70;99.90
58339;DHT22;68636;52.704;6.536;2023-08-06T10:42:26;20.80;99.90
58339;DHT22;68636;52.704;6.536;2023-08-06T10:45:12;21.00;99.90
58339;DHT22;68636;52.704;6.536;2023-08-06T10:47:42;20.90;99.90
58339;DHT22;68636;52.704;6.536;2023-08-06T10:50:10;20.90;99.90
58339;DHT22;68636;52.704;6.536;2023-08-06T10:52:36;21.00;99.90
58339;DHT22;68636;52.704;6.536;2023-08-06T10:55:02;20.80;99.90
58339;DHT22;68636;52.704;6.536;2023-08-06T10:57:27;21.10;99.90
58339;DHT22;68636;52.704;6.536;2023-08-06T10:59:53;21.10;99.90
58339;DHT22;68636;52.704;6.536;2023-08-06T11:02:19;20.80;99.90
58339;DHT22;68636;52.704;6.536;2023-08-06T11:04:45;21.10;99.90
58339;DHT22;68636;52.704;6.536;2023-08-06T11:07:10;20.70;99.90
58339;DHT22;68636;52.704;6.536;2023-08-06T11:09:37;20.70;99.90
58339;DHT22;68636;52.704;6.536;2023-08-06T11:12:09;20.90;99.90
58339;DHT22;68636;52.704;6.536;2023-08-06T11:14:35;21.10;99.90
58339;DHT22;68636;52.704;6.536;2023-08-06T11:17:01;21.20;99.90
58339;DHT22;68636;52.704;6.536;2023-08-06T11:19:27;21.50;99.90
58339;DHT22;68636;52.704;6.536;2023-08-06T11:21:54;21.50;99.90
58339;DHT22;68636;52.704;6.536;2023-08-06T11:24:20;21.70;99.90
58339;DHT22;68636;52.704;6.536;2023-08-06T11:26:46;21.80;99.90
58339;DHT22;68636;52.704;6.536;2023-08-06T11:29:11;21.50;99.90
58339;DHT22;68636;52.704;6.536;2023-08-06T11:31:37;21.70;99.90
58339;DHT22;68636;52.704;6.536;2023-08-06T11:34:04;21.80;99.90
58339;DHT22;68636;52.704;6.536;2023-08-06T11:36:34;21.70;99.90
58339;DHT22;68636;52.704;6.536;2023-08-06T11:39:03;21.80;99.90
58339;DHT22;68636;52.704;6.536;2023-08-06T11:41:31;21.50;99.90
58339;DHT22;68636;52.704;6.536;2023-08-06T11:44:01;21.50;99.90
58339;DHT22;68636;52.704;6.536;2023-08-06T11:46:26;21.60;99.90
58339;DHT22;68636;52.704;6.536;2023-08-06T11:51:18;21.40;99.90
58339;DHT22;68636;52.704;6.536;2023-08-06T11:53:49;21.40;99.90
58339;DHT22;68636;52.704;6.536;2023-08-06T11:56:15;21.40;99.90
58339;DHT22;68636;52.704;6.536;2023-08-06T11:58:42;21.30;99.90
58339;DHT22;68636;52.704;6.536;2023-08-06T12:01:08;21.30;99.90
58339;DHT22;68636;52.704;6.536;2023-08-06T12:03:42;21.40;99.90
58339;DHT22;68636;52.704;6.536;2023-08-06T12:06:07;21.20;99.90
58339;DHT22;68636;52.704;6.536;2023-08-06T12:08:33;21.40;99.90
58339;DHT22;68636;52.704;6.536;2023-08-06T12:10:59;21.50;99.90
58339;DHT22;68636;52.704;6.536;2023-08-06T12:13:25;21.70;99.90
58339;DHT22;68636;52.704;6.536;2023-08-06T12:15:51;21.90;99.90
58339;DHT22;68636;52.704;6.536;2023-08-06T12:18:19;21.70;99.90
58339;DHT22;68636;52.704;6.536;2023-08-06T12:20:45;22.00;99.90
58339;DHT22;68636;52.704;6.536;2023-08-06T12:23:10;22.20;99.90
58339;DHT22;68636;52.704;6.536;2023-08-06T12:25:41;22.50;99.90
58339;DHT22;68636;52.704;6.536;2023-08-06T12:28:07;22.40;99.90
58339;DHT22;68636;52.704;6.536;2023-08-06T12:30:34;22.50;99.90
58339;DHT22;68636;52.704;6.536;2023-08-06T12:32:59;22.50;99.90
58339;DHT22;68636;52.704;6.536;2023-08-06T12:35:25;22.30;99.90
58339;DHT22;68636;52.704;6.536;2023-08-06T12:37:52;21.90;99.90
58339;DHT22;68636;52.704;6.536;2023-08-06T12:40:20;21.80;99.90
58339;DHT22;68636;52.704;6.536;2023-08-06T12:42:46;21.40;99.90
58339;DHT22;68636;52.704;6.536;2023-08-06T12:45:12;20.50;99.90
58339;DHT22;68636;52.704;6.536;2023-08-06T12:47:37;20.30;99.90
58339;DHT22;68636;52.704;6.536;2023-08-06T12:50:03;20.10;99.90
58339;DHT22;68636;52.704;6.536;2023-08-06T12:52:29;19.80;99.90
58339;DHT22;68636;52.704;6.536;2023-08-06T12:54:55;19.50;99.90
58339;DHT22;68636;52.704;6.536;2023-08-06T12:57:21;19.40;99.90
58339;DHT22;68636;52.704;6.536;2023-08-06T12:59:46;19.00;99.90
58339;DHT22;68636;52.704;6.536;2023-08-06T13:02:13;18.90;99.90
58339;DHT22;68636;52.704;6.536;2023-08-06T13:04:39;18.90;99.90
58339;DHT22;68636;52.704;6.536;2023-08-06T13:07:05;18.80;99.90
58339;DHT22;68636;52.704;6.536;2023-08-06T13:09:32;18.80;99.90
58339;DHT22;68636;52.704;6.536;2023-08-06T13:11:58;18.80;99.90
58339;DHT22;68636;52.704;6.536;2023-08-06T13:14:25;18.70;99.90
58339;DHT22;68636;52.704;6.536;2023-08-06T13:16:51;18.60;99.90
58339;DHT22;68636;52.704;6.536;2023-08-06T13:19:17;18.50;99.90
58339;DHT22;68636;52.704;6.536;2023-08-06T13:24:19;18.30;99.90
58339;DHT22;68636;52.704;6.536;2023-08-06T13:26:45;18.20;99.90
58339;DHT22;68636;52.704;6.536;2023-08-06T13:29:10;18.20;99.90
58339;DHT22;68636;52.704;6.536;2023-08-06T13:31:37;18.30;99.90
58339;DHT22;68636;52.704;6.536;2023-08-06T13:34:02;18.30;99.90
58339;DHT22;68636;52.704;6.536;2023-08-06T13:36:28;18.40;99.90
58339;DHT22;68636;52.704;6.536;2023-08-06T13:38:55;18.30;99.90
58339;DHT22;68636;52.704;6.536;2023-08-06T13:41:21;18.20;99.90
58339;DHT22;68636;52.704;6.536;2023-08-06T13:43:47;18.20;99.90
58339;DHT22;68636;52.704;6.536;2023-08-06T13:46:13;18.30;99.90
58339;DHT22;68636;52.704;6.536;2023-08-06T13:48:44;18.30;99.90
58339;DHT22;68636;52.704;6.536;2023-08-06T13:51:11;18.30;99.90
58339;DHT22;68636;52.704;6.536;2023-08-06T13:53:38;18.30;99.90
58339;DHT22;68636;52.704;6.536;2023-08-06T13:56:04;18.40;99.90
58339;DHT22;68636;52.704;6.536;2023-08-06T13:58:31;18.40;99.90
58339;DHT22;68636;52.704;6.536;2023-08-06T14:00:57;18.40;99.90
58339;DHT22;68636;52.704;6.536;2023-08-06T14:03:23;18.50;99.90
58339;DHT22;68636;52.704;6.536;2023-08-06T14:05:49;18.50;99.90
58339;DHT22;68636;52.704;6.536;2023-08-06T14:08:15;18.50;99.90
58339;DHT22;68636;52.704;6.536;2023-08-06T14:10:44;18.50;99.90
58339;DHT22;68636;52.704;6.536;2023-08-06T14:13:10;18.70;99.90
58339;DHT22;68636;52.704;6.536;2023-08-06T14:15:36;18.80;99.90
58339;DHT22;68636;52.704;6.536;2023-08-06T14:18:02;18.90;99.90
58339;DHT22;68636;52.704;6.536;2023-08-06T14:20:28;18.80;99.90
58339;DHT22;68636;52.704;6.536;2023-08-06T14:22:54;18.70;99.90
58339;DHT22;68636;52.704;6.536;2023-08-06T14:25:20;18.80;99.90
58339;DHT22;68636;52.704;6.536;2023-08-06T14:27:46;18.80;99.90
58339;DHT22;68636;52.704;6.536;2023-08-06T14:30:11;18.90;99.90
58339;DHT22;68636;52.704;6.536;2023-08-06T14:32:37;18.90;99.90
58339;DHT22;68636;52.704;6.536;2023-08-06T14:35:03;19.10;99.90
58339;DHT22;68636;52.704;6.536;2023-08-06T14:37:29;19.00;99.90
58339;DHT22;68636;52.704;6.536;2023-08-06T14:39:54;18.80;99.90
58339;DHT22;68636;52.704;6.536;2023-08-06T14:42:21;18.80;99.90
58339;DHT22;68636;52.704;6.536;2023-08-06T14:44:46;18.80;99.90
58339;DHT22;68636;52.704;6.536;2023-08-06T14:47:12;18.80;99.90
58339;DHT22;68636;52.704;6.536;2023-08-06T14:49:38;18.80;99.90
58339;DHT22;68636;52.704;6.536;2023-08-06T14:52:05;18.80;99.90
58339;DHT22;68636;52.704;6.536;2023-08-06T14:54:31;18.70;99.90
58339;DHT22;68636;52.704;6.536;2023-08-06T14:56:56;18.70;99.90
58339;DHT22;68636;52.704;6.536;2023-08-06T14:59:22;18.70;99.90
58339;DHT22;68636;52.704;6.536;2023-08-06T15:01:48;18.70;99.90
58339;DHT22;68636;52.704;6.536;2023-08-06T15:04:14;18.60;99.90
58339;DHT22;68636;52.704;6.536;2023-08-06T15:06:40;18.50;99.90
58339;DHT22;68636;52.704;6.536;2023-08-06T15:09:06;18.50;99.90
58339;DHT22;68636;52.704;6.536;2023-08-06T15:11:32;18.40;99.90
58339;DHT22;68636;52.704;6.536;2023-08-06T15:13:58;18.30;99.90
58339;DHT22;68636;52.704;6.536;2023-08-06T15:16:26;18.20;99.90
58339;DHT22;68636;52.704;6.536;2023-08-06T15:18:52;18.20;99.90
58339;DHT22;68636;52.704;6.536;2023-08-06T15:21:18;18.10;99.90
58339;DHT22;68636;52.704;6.536;2023-08-06T15:23:44;17.90;99.90
58339;DHT22;68636;52.704;6.536;2023-08-06T15:26:10;17.90;99.90
58339;DHT22;68636;52.704;6.536;2023-08-06T15:28:35;17.70;99.90
58339;DHT22;68636;52.704;6.536;2023-08-06T15:31:01;17.60;99.90
58339;DHT22;68636;52.704;6.536;2023-08-06T15:33:29;17.50;99.90
58339;DHT22;68636;52.704;6.536;2023-08-06T15:35:55;17.40;99.90
58339;DHT22;68636;52.704;6.536;2023-08-06T15:38:21;17.30;99.90
58339;DHT22;68636;52.704;6.536;2023-08-06T15:40:46;17.40;99.90